Time;durP1;ratioP1;P1;durP2;ratioP2;P2;SDS_P1;SDS_P2;PMS_P1;PMS_P2;Temp;Humidity;BMP_temperature;BMP_pressure;BME280_temperature;BME280_humidity;BME280_pressure;Samples;Min_cycle;Max_cycle;Signal;HPM_P1;HPM_P2
2021/08/27 00:01:36;;;;;;;;;;;;;;;20.38;58.77;101538.88;5073730;28;1906;-58
2021/08/27 00:04:01;;;;;;;;;;;;;;;20.37;58.51;101539.88;5057294;28;842;-57
2021/08/27 00:06:26;;;;;;;;;;;;;;;20.36;58.23;101540.88;5057658;28;1631;-57
2021/08/27 00:08:52;;;;;;;;;;;;;;;20.36;58.86;101537.28;5057554;28;1064;-57
2021/08/27 00:11:17;;;;;;;;;;;;;;;20.35;59.20;101541.84;5055856;28;1839;-57
2021/08/27 00:13:42;;;;;;;;;;;;;;;20.35;58.71;101541.00;5057257;28;931;-57
2021/08/27 00:16:07;;;;;;;;;;;;;;;20.35;59.26;101538.28;5062043;28;1891;-57
2021/08/27 00:18:32;;;;;;;;;;;;;;;20.33;58.75;101538.41;5076499;28;1436;-55
2021/08/27 00:20:57;;;;;;;;;;;;;;;20.33;58.74;101537.56;5076978;28;1913;-57
2021/08/27 00:23:22;;;;;;;;;;;;;;;20.33;59.31;101532.16;5075208;28;1867;-55
2021/08/27 00:25:47;;;;;;;;;;;;;;;20.33;59.10;101526.75;5075404;28;810;-57
2021/08/27 00:28:13;;;;;;;;;;;;;;;20.32;59.35;101523.19;5076973;28;1033;-56
2021/08/27 00:30:38;;;;;;;;;;;;;;;20.30;59.61;101527.88;5066239;28;1805;-57
2021/08/27 00:33:03;;;;;;;;;;;;;;;20.29;59.15;101526.16;5056792;28;921;-56
2021/08/27 00:35:28;;;;;;;;;;;;;;;20.30;59.48;101522.47;5056547;28;1427;-57
2021/08/27 00:37:53;;;;;;;;;;;;;;;20.29;58.74;101526.16;5056535;28;1001;-57
2021/08/27 00:40:18;;;;;;;;;;;;;;;20.29;59.28;101525.31;5056423;28;1977;-57
2021/08/27 00:42:43;;;;;;;;;;;;;;;20.27;59.23;101517.34;5056593;28;982;-54
2021/08/27 00:45:08;;;;;;;;;;;;;;;20.27;59.55;101522.75;5068775;28;1898;-56
2021/08/27 00:47:33;;;;;;;;;;;;;;;20.26;58.84;101521.03;5074882;28;859;-56
2021/08/27 00:49:58;;;;;;;;;;;;;;;20.26;59.53;101520.19;5076369;28;826;-57
2021/08/27 00:52:23;;;;;;;;;;;;;;;20.26;59.09;101529.16;5075706;28;1732;-57
2021/08/27 00:54:48;;;;;;;;;;;;;;;20.24;59.07;101523.06;5076244;28;1718;-58
2021/08/27 00:57:14;;;;;;;;;;;;;;;20.23;58.81;101521.38;5076465;28;974;-59
2021/08/27 00:59:39;;;;;;;;;;;;;;;20.24;59.47;101522.22;5063396;28;1750;-59
2021/08/27 01:02:04;;;;;;;;;;;;;;;20.22;59.43;101521.50;5055859;28;1906;-59
2021/08/27 01:04:30;;;;;;;;;;;;;;;20.21;59.63;101520.66;5055993;28;1579;-59
2021/08/27 01:06:55;;;;;;;;;;;;;;;20.21;59.41;101528.78;5055822;28;1328;-57
2021/08/27 01:09:20;;;;;;;;;;;;;;;20.21;59.53;101526.06;5056133;28;866;-59
2021/08/27 01:11:45;;;;;;;;;;;;;;;20.20;59.76;101524.34;5055970;28;1298;-59
2021/08/27 01:14:10;;;;;;;;;;;;;;;20.19;59.73;101525.34;5055799;28;1842;-59
2021/08/27 01:16:35;;;;;;;;;;;;;;;20.19;59.80;101519.09;5056108;28;990;-58
2021/08/27 01:19:00;;;;;;;;;;;;;;;20.18;59.64;101523.66;5055926;28;1033;-56
2021/08/27 01:21:25;;;;;;;;;;;;;;;20.17;59.51;101515.66;5055679;28;1979;-58
2021/08/27 01:23:50;;;;;;;;;;;;;;;20.17;59.51;101518.38;5055281;28;998;-58
2021/08/27 01:26:15;;;;;;;;;;;;;;;20.15;59.18;101513.09;5055570;28;1018;-59
2021/08/27 01:28:40;;;;;;;;;;;;;;;20.16;59.10;101516.66;5074412;28;1886;-58
2021/08/27 01:31:06;;;;;;;;;;;;;;;20.15;59.42;101523.06;5075409;28;1009;-59
2021/08/27 01:33:31;;;;;;;;;;;;;;;20.14;59.38;101522.22;5074750;28;1017;-59
2021/08/27 01:35:56;;;;;;;;;;;;;;;20.13;59.20;101515.09;5074988;28;878;-59
2021/08/27 01:38:21;;;;;;;;;;;;;;;20.12;59.06;101516.09;5075716;28;1557;-59
2021/08/27 01:40:46;;;;;;;;;;;;;;;20.12;59.47;101513.38;5075748;28;1897;-59
2021/08/27 01:43:11;;;;;;;;;;;;;;;20.10;59.43;101512.66;5055879;28;1740;-59
2021/08/27 01:45:36;;;;;;;;;;;;;;;20.10;58.84;101515.38;5055051;28;841;-59
2021/08/27 01:48:04;;;;;;;;;;;;;;;20.09;59.29;101519.94;5054945;28;1595;-59
2021/08/27 01:50:29;;;;;;;;;;;;;;;20.08;59.57;101515.53;5055836;28;877;-58
2021/08/27 01:52:55;;;;;;;;;;;;;;;20.09;59.80;101516.38;5054890;28;994;-58
2021/08/27 01:55:20;;;;;;;;;;;;;;;20.07;59.78;101519.22;5057577;28;1861;-58
2021/08/27 01:57:45;;;;;;;;;;;;;;;20.06;59.08;101514.00;5075448;28;1631;-58
2021/08/27 02:00:10;;;;;;;;;;;;;;;20.05;59.44;101521.25;5075389;28;1947;-58
2021/08/27 02:02:35;;;;;;;;;;;;;;;20.05;59.75;101521.25;5075343;28;854;-58
2021/08/27 02:05:00;;;;;;;;;;;;;;;20.04;60.35;101522.25;5074791;28;1955;-58
2021/08/27 02:07:25;;;;;;;;;;;;;;;20.04;59.88;101521.38;5075149;28;1629;-57
2021/08/27 02:09:50;;;;;;;;;;;;;;;20.05;59.93;101525.81;5069864;28;1781;-58
2021/08/27 02:12:15;;;;;;;;;;;;;;;20.04;59.10;101529.50;5054921;28;1196;-57
2021/08/27 02:14:40;;;;;;;;;;;;;;;20.02;60.38;101523.38;5055064;28;897;-58
2021/08/27 02:17:06;;;;;;;;;;;;;;;20.03;59.71;101522.38;5055345;28;1657;-58
2021/08/27 02:19:31;;;;;;;;;;;;;;;20.01;59.38;101521.69;5054916;28;869;-58
2021/08/27 02:21:56;;;;;;;;;;;;;;;20.01;59.17;101521.69;5054644;28;1934;-58
2021/08/27 02:24:21;;;;;;;;;;;;;;;20.01;59.73;101525.22;5063785;28;1859;-57
2021/08/27 02:26:46;;;;;;;;;;;;;;;20.00;59.70;101526.22;5074869;28;1498;-57
2021/08/27 02:29:11;;;;;;;;;;;;;;;20.00;59.27;101530.78;5075040;28;837;-58
2021/08/27 02:31:37;;;;;;;;;;;;;;;19.99;59.57;101527.22;5075208;28;835;-58
2021/08/27 02:34:02;;;;;;;;;;;;;;;19.99;59.73;101532.63;5074783;28;853;-57
2021/08/27 02:36:27;;;;;;;;;;;;;;;19.98;59.62;101527.38;5075144;28;2138;-57
2021/08/27 02:38:52;;;;;;;;;;;;;;;19.97;59.75;101529.22;5074310;28;1894;-57
2021/08/27 02:41:17;;;;;;;;;;;;;;;19.97;59.61;101531.06;5074380;28;1903;-59
2021/08/27 02:43:42;;;;;;;;;;;;;;;19.96;59.88;101541.03;5074455;28;912;-59
2021/08/27 02:46:07;;;;;;;;;;;;;;;19.96;60.29;101541.03;5076859;28;831;-58
2021/08/27 02:48:33;;;;;;;;;;;;;;;19.96;60.63;101532.91;5078471;28;993;-58
2021/08/27 02:50:58;;;;;;;;;;;;;;;19.95;59.81;101542.03;5078711;28;842;-57
2021/08/27 02:53:23;;;;;;;;;;;;;;;19.94;60.29;101536.75;5062929;28;1758;-56
2021/08/27 02:55:48;;;;;;;;;;;;;;;19.93;60.66;101530.50;5058706;28;1712;-57
2021/08/27 02:58:13;;;;;;;;;;;;;;;19.94;60.42;101536.75;5058638;28;1072;-57
2021/08/27 03:00:38;;;;;;;;;;;;;;;19.92;60.32;101533.34;5058276;28;1894;-56
2021/08/27 03:03:03;;;;;;;;;;;;;;;19.92;59.62;101530.63;5058246;28;836;-57
2021/08/27 03:05:28;;;;;;;;;;;;;;;19.91;60.19;101531.63;5058584;28;1502;-59
2021/08/27 03:07:53;;;;;;;;;;;;;;;19.91;60.79;101539.75;5077539;28;2035;-57
2021/08/27 03:10:18;;;;;;;;;;;;;;;19.91;60.40;101539.75;5077992;28;1121;-55
2021/08/27 03:12:44;;;;;;;;;;;;;;;19.90;59.71;101543.44;5078382;28;1021;-54
2021/08/27 03:15:09;;;;;;;;;;;;;;;19.89;60.61;101539.88;5068398;28;1596;-55
2021/08/27 03:17:34;;;;;;;;;;;;;;;19.89;60.55;101539.03;5058138;28;1018;-57
2021/08/27 03:19:59;;;;;;;;;;;;;;;19.88;60.81;101535.50;5058180;28;1784;-56
2021/08/27 03:22:24;;;;;;;;;;;;;;;19.88;60.00;101542.75;5077663;28;1944;-55
2021/08/27 03:24:49;;;;;;;;;;;;;;;19.86;59.55;101544.75;5077852;28;1001;-55
2021/08/27 03:27:14;;;;;;;;;;;;;;;19.86;59.89;101544.75;5078100;28;992;-57
2021/08/27 03:29:39;;;;;;;;;;;;;;;19.86;60.08;101556.44;5077773;28;997;-58
2021/08/27 03:32:04;;;;;;;;;;;;;;;19.85;60.89;101565.53;5077791;28;1042;-57
2021/08/27 03:34:29;;;;;;;;;;;;;;;19.79;60.13;101566.09;5075764;28;1966;-58
2021/08/27 03:36:54;;;;;;;;;;;;;;;19.78;60.14;101561.69;5077603;28;1009;-59
2021/08/27 03:39:19;;;;;;;;;;;;;;;19.78;59.33;101564.38;5077769;28;917;-58
2021/08/27 03:41:44;;;;;;;;;;;;;;;19.79;60.14;101566.09;5077733;28;1948;-58
2021/08/27 03:44:10;;;;;;;;;;;;;;;19.76;59.83;101572.63;5077964;28;865;-57
2021/08/27 03:46:35;;;;;;;;;;;;;;;19.77;60.34;101568.94;5075008;28;1869;-57
2021/08/27 03:49:00;;;;;;;;;;;;;;;19.77;60.10;101563.53;5064086;28;1836;-57
2021/08/27 03:51:27;;;;;;;;;;;;;;;19.77;60.60;101562.69;5077130;28;1005;-58
2021/08/27 03:53:52;;;;;;;;;;;;;;;19.75;59.83;101560.09;5078050;28;906;-58
2021/08/27 03:56:17;;;;;;;;;;;;;;;19.76;59.74;101560.97;5076813;28;987;-57
2021/08/27 03:58:42;;;;;;;;;;;;;;;19.75;60.60;101554.69;5076784;28;831;-56
2021/08/27 04:01:07;;;;;;;;;;;;;;;19.76;59.97;101545.59;5069408;28;1953;-57
2021/08/27 04:03:32;;;;;;;;;;;;;;;19.76;60.44;101561.81;5057643;28;1028;-59
2021/08/27 04:05:57;;;;;;;;;;;;;;;19.77;60.66;101551.84;5057535;28;855;-58
2021/08/27 04:08:22;;;;;;;;;;;;;;;19.77;60.34;101555.41;5057227;28;847;-55
2021/08/27 04:10:47;;;;;;;;;;;;;;;19.77;60.14;101552.72;5075065;28;1975;-56
2021/08/27 04:13:12;;;;;;;;;;;;;;;19.76;60.66;101556.41;5077096;28;1057;-57
2021/08/27 04:15:37;;;;;;;;;;;;;;;19.76;60.43;101548.28;5066003;28;1792;-55
2021/08/27 04:18:03;;;;;;;;;;;;;;;19.76;60.66;101542.03;5056888;28;1778;-55
2021/08/27 04:20:28;;;;;;;;;;;;;;;19.76;60.44;101542.88;5056925;28;1902;-53
2021/08/27 04:22:53;;;;;;;;;;;;;;;19.74;60.25;101550.28;5056850;28;803;-55
2021/08/27 04:25:18;;;;;;;;;;;;;;;19.75;60.83;101551.13;5056995;28;933;-54
2021/08/27 04:27:43;;;;;;;;;;;;;;;19.75;60.04;101554.69;5056743;28;1737;-53
2021/08/27 04:30:08;;;;;;;;;;;;;;;19.75;60.79;101553.84;5066252;28;1835;-53
2021/08/27 04:32:33;;;;;;;;;;;;;;;19.75;59.89;101549.28;5036598;28;862;-54
2021/08/27 04:34:58;;;;;;;;;;;;;;;19.74;61.28;101552.13;5037979;28;1812;-54
2021/08/27 04:37:23;;;;;;;;;;;;;;;19.75;61.05;101543.03;5075432;28;734;-57
2021/08/27 04:39:48;;;;;;;;;;;;;;;19.74;60.28;101541.31;5076804;28;1168;-52
2021/08/27 04:42:13;;;;;;;;;;;;;;;19.73;60.60;101545.00;5045293;28;1893;-53
2021/08/27 04:44:39;;;;;;;;;;;;;;;19.73;60.15;101555.84;5070421;28;1718;-53
2021/08/27 04:47:04;;;;;;;;;;;;;;;19.77;61.55;101546.44;5076336;28;1572;-51
2021/08/27 04:49:29;;;;;;;;;;;;;;;19.80;61.79;101548.88;5076126;28;874;-50
2021/08/27 04:51:54;;;;;;;;;;;;;;;19.83;60.79;101553.16;5076333;28;1049;-53
2021/08/27 04:54:19;;;;;;;;;;;;;;;19.83;63.42;101548.59;5064233;28;1356;-55
2021/08/27 04:56:44;;;;;;;;;;;;;;;19.83;64.08;101550.44;5053029;28;1501;-56
2021/08/27 04:59:09;;;;;;;;;;;;;;;19.83;62.47;101548.59;5053633;28;1552;-56
2021/08/27 05:01:34;;;;;;;;;;;;;;;19.81;63.00;101549.72;5073179;28;2104;-55
2021/08/27 05:03:59;;;;;;;;;;;;;;;19.80;62.70;101556.13;5067449;28;1614;-56
2021/08/27 05:06:24;;;;;;;;;;;;;;;19.79;62.55;101557.13;5045886;28;1477;-56
2021/08/27 05:08:49;;;;;;;;;;;;;;;19.75;62.13;101552.00;5044926;28;1645;-55
2021/08/27 05:11:15;;;;;;;;;;;;;;;19.74;62.93;101547.59;5046663;28;1643;-53
2021/08/27 05:13:40;;;;;;;;;;;;;;;19.75;62.22;101560.09;5044903;28;1725;-55
2021/08/27 05:16:05;;;;;;;;;;;;;;;19.72;62.25;101559.53;5046296;28;1633;-55
2021/08/27 05:18:30;;;;;;;;;;;;;;;19.71;61.77;101560.53;5046059;28;1659;-56
2021/08/27 05:20:55;;;;;;;;;;;;;;;19.71;62.20;101553.25;5044808;28;1910;-56
2021/08/27 05:23:20;;;;;;;;;;;;;;;19.69;62.35;101555.28;5044358;28;1724;-56
2021/08/27 05:25:45;;;;;;;;;;;;;;;19.68;61.83;101556.28;5044209;28;1561;-55
2021/08/27 05:28:10;;;;;;;;;;;;;;;19.68;62.06;101560.84;5046653;28;1884;-55
2021/08/27 05:30:35;;;;;;;;;;;;;;;19.66;61.73;101566.38;5038770;28;1726;-56
2021/08/27 05:33:00;;;;;;;;;;;;;;;19.66;62.23;101560.13;5045131;28;1737;-56
2021/08/27 05:35:25;;;;;;;;;;;;;;;19.65;61.53;101558.41;5046509;28;1402;-55
2021/08/27 05:37:50;;;;;;;;;;;;;;;19.64;61.48;101560.25;5045409;28;1762;-56
2021/08/27 05:40:16;;;;;;;;;;;;;;;19.65;61.71;101580.91;5049892;28;1890;-57
2021/08/27 05:42:41;;;;;;;;;;;;;;;19.62;62.18;101570.34;5048677;28;1430;-57
2021/08/27 05:45:06;;;;;;;;;;;;;;;19.62;61.77;101564.94;5048729;28;1643;-57
2021/08/27 05:47:31;;;;;;;;;;;;;;;19.62;62.39;101564.94;5050033;28;1782;-56
2021/08/27 05:49:56;;;;;;;;;;;;;;;19.62;62.24;101572.19;5039122;28;1567;-56
2021/08/27 05:52:21;;;;;;;;;;;;;;;19.62;62.96;101575.75;5035207;28;1084;-56
2021/08/27 05:54:46;;;;;;;;;;;;;;;19.63;62.74;101572.06;5038273;28;1823;-57
2021/08/27 05:57:11;;;;;;;;;;;;;;;19.71;63.67;101571.34;5061755;28;1784;-57
2021/08/27 05:59:36;;;;;;;;;;;;;;;19.73;63.39;101583.72;5053867;28;1600;-57
2021/08/27 06:02:01;;;;;;;;;;;;;;;19.77;62.39;101578.91;5048477;28;1890;-56
2021/08/27 06:04:26;;;;;;;;;;;;;;;19.76;62.82;101578.03;5055500;28;1469;-54
2021/08/27 06:06:53;;;;;;;;;;;;;;;19.77;63.68;101584.31;5055239;28;908;-56
2021/08/27 06:09:18;;;;;;;;;;;;;;;19.80;62.55;101588.59;5055431;28;1783;-57
2021/08/27 06:11:43;;;;;;;;;;;;;;;19.76;62.70;101585.31;5054942;28;1768;-57
2021/08/27 06:14:08;;;;;;;;;;;;;;;19.75;62.27;101589.84;5055124;28;1021;-57
2021/08/27 06:16:33;;;;;;;;;;;;;;;19.77;63.04;101581.59;5055776;28;1737;-56
2021/08/27 06:18:58;;;;;;;;;;;;;;;19.80;62.03;101586.75;5053617;28;853;-56
2021/08/27 06:21:24;;;;;;;;;;;;;;;19.83;62.13;101585.59;5057508;28;1901;-57
2021/08/27 06:23:49;;;;;;;;;;;;;;;19.82;61.79;101592.00;5063595;28;1894;-55
2021/08/27 06:26:14;;;;;;;;;;;;;;;19.78;61.38;101580.63;5078795;28;1001;-57
2021/08/27 06:28:39;;;;;;;;;;;;;;;19.81;61.48;101591.16;5079157;28;1699;-57
2021/08/27 06:31:04;;;;;;;;;;;;;;;19.81;61.29;101590.31;5078979;28;865;-56
2021/08/27 06:33:31;;;;;;;;;;;;;;;19.85;61.38;101591.72;5079201;28;1037;-55
2021/08/27 06:35:56;;;;;;;;;;;;;;;19.87;61.52;101592.44;5077509;28;1744;-57
2021/08/27 06:40:46;;;;;;;;;;;;;;;19.90;60.74;101597.56;5058921;28;2313;-57
2021/08/27 06:43:11;;;;;;;;;;;;;;;19.93;60.52;101590.00;5058930;28;1009;-57
2021/08/27 06:45:36;;;;;;;;;;;;;;;19.95;61.38;101589.88;5058844;28;1025;-56
2021/08/27 06:48:01;;;;;;;;;;;;;;;19.96;60.62;101594.28;5058190;28;981;-56
2021/08/27 06:50:26;;;;;;;;;;;;;;;19.99;60.48;101594.00;5077761;28;1861;-55
2021/08/27 06:52:52;;;;;;;;;;;;;;;20.00;60.35;101593.00;5078805;28;1001;-57
2021/08/27 06:55:17;;;;;;;;;;;;;;;20.01;60.73;101589.31;5078381;28;922;-57
2021/08/27 06:57:42;;;;;;;;;;;;;;;20.03;60.91;101590.88;5078289;28;1867;-57
2021/08/27 07:00:07;;;;;;;;;;;;;;;20.04;60.52;101595.31;5078606;28;886;-57
2021/08/27 07:02:32;;;;;;;;;;;;;;;20.07;60.30;101602.25;5078068;28;1961;-56
2021/08/27 07:04:57;;;;;;;;;;;;;;;20.07;60.39;101597.69;5057352;28;1752;-57
2021/08/27 07:07:22;;;;;;;;;;;;;;;20.09;59.62;101608.38;5058488;28;997;-57
2021/08/27 07:09:47;;;;;;;;;;;;;;;20.09;59.77;101611.09;5058229;28;882;-57
2021/08/27 07:12:13;;;;;;;;;;;;;;;20.11;60.37;101607.25;5058349;28;1779;-57
2021/08/27 07:14:38;;;;;;;;;;;;;;;20.13;60.18;101612.53;5072184;28;1978;-56
2021/08/27 07:17:03;;;;;;;;;;;;;;;20.14;59.65;101613.38;5078263;28;914;-57
2021/08/27 07:19:28;;;;;;;;;;;;;;;20.16;60.49;101614.09;5078363;28;1717;-57
2021/08/27 07:21:53;;;;;;;;;;;;;;;20.14;60.69;101611.53;5077808;28;1973;-57
2021/08/27 07:24:18;;;;;;;;;;;;;;;20.17;59.91;101616.66;5078047;28;1044;-57
2021/08/27 07:26:43;;;;;;;;;;;;;;;20.17;59.93;101616.66;5064238;28;1753;-57
2021/08/27 07:29:09;;;;;;;;;;;;;;;20.13;59.89;101614.38;5057945;28;828;-57
2021/08/27 07:31:34;;;;;;;;;;;;;;;20.10;59.86;101618.22;5058020;28;994;-57
2021/08/27 07:33:59;;;;;;;;;;;;;;;20.07;59.79;101619.34;5058028;28;906;-57
2021/08/27 07:36:24;;;;;;;;;;;;;;;20.01;59.84;101617.22;5057703;28;888;-57
2021/08/27 07:38:49;;;;;;;;;;;;;;;19.98;59.45;101622.06;5057533;28;1730;-57
2021/08/27 07:41:14;;;;;;;;;;;;;;;19.97;59.53;101620.34;5070147;28;1902;-57
2021/08/27 07:43:39;;;;;;;;;;;;;;;19.98;59.73;101622.06;5077482;28;1185;-57
2021/08/27 07:46:04;;;;;;;;;;;;;;;19.97;60.26;101625.75;5077380;28;1041;-57
2021/08/27 07:48:29;;;;;;;;;;;;;;;19.98;59.78;101622.91;5077639;28;1845;-57
2021/08/27 07:50:54;;;;;;;;;;;;;;;19.99;59.97;101626.47;5077466;28;1001;-57
2021/08/27 07:53:19;;;;;;;;;;;;;;;19.99;59.63;101619.22;5077939;28;1005;-57
2021/08/27 07:55:44;;;;;;;;;;;;;;;19.97;60.34;101623.91;5057462;28;1583;-56
2021/08/27 07:58:09;;;;;;;;;;;;;;;20.01;59.65;101619.09;5057379;28;857;-57
2021/08/27 08:00:35;;;;;;;;;;;;;;;20.03;59.58;101617.09;5057250;28;1906;-58
2021/08/27 08:03:00;;;;;;;;;;;;;;;20.01;59.32;101619.94;5057512;28;1866;-56
2021/08/27 08:05:26;;;;;;;;;;;;;;;20.00;59.76;101620.06;5057160;28;1616;-57
2021/08/27 08:07:51;;;;;;;;;;;;;;;19.97;60.09;101617.66;5058281;28;1771;-57
2021/08/27 08:10:16;;;;;;;;;;;;;;;19.93;59.45;101616.22;5076946;28;1282;-57
2021/08/27 08:12:41;;;;;;;;;;;;;;;19.89;59.45;101614.78;5077438;28;898;-56
2021/08/27 08:15:06;;;;;;;;;;;;;;;19.86;59.68;101612.38;5076992;28;850;-56
2021/08/27 08:17:31;;;;;;;;;;;;;;;19.85;59.71;101621.50;5077203;28;790;-57
2021/08/27 08:19:56;;;;;;;;;;;;;;;19.84;60.47;101617.94;5077204;28;989;-57
2021/08/27 08:22:21;;;;;;;;;;;;;;;19.83;59.61;101626.19;5069762;28;1910;-56
2021/08/27 08:24:47;;;;;;;;;;;;;;;19.82;60.25;101646.09;5075447;28;1785;-57
2021/08/27 08:27:12;;;;;;;;;;;;;;;19.79;60.51;101646.38;5076879;28;1071;-57
2021/08/27 08:29:38;;;;;;;;;;;;;;;19.76;59.98;101652.91;5077004;28;910;-57
2021/08/27 08:32:05;;;;;;;;;;;;;;;19.77;59.97;101643.81;5076322;28;853;-57
2021/08/27 08:34:30;;;;;;;;;;;;;;;19.76;59.57;101637.56;5070012;28;1777;-57
2021/08/27 08:36:55;;;;;;;;;;;;;;;19.76;60.48;101632.16;5056818;28;1861;-57
2021/08/27 08:39:20;;;;;;;;;;;;;;;19.77;59.94;101641.13;5056682;28;1013;-57
2021/08/27 08:41:45;;;;;;;;;;;;;;;19.79;59.60;101632.84;5056267;28;1949;-57
2021/08/27 08:44:10;;;;;;;;;;;;;;;19.79;59.97;101636.41;5055971;28;1173;-57
2021/08/27 08:46:35;;;;;;;;;;;;;;;19.81;59.98;101636.28;5056562;28;1009;-57
2021/08/27 08:49:01;;;;;;;;;;;;;;;19.82;60.44;101635.28;5065146;28;1737;-56
2021/08/27 08:51:26;;;;;;;;;;;;;;;19.80;60.12;101634.56;5076600;28;850;-57
2021/08/27 08:53:52;;;;;;;;;;;;;;;19.82;60.12;101638.00;5076195;28;807;-56
2021/08/27 08:56:17;;;;;;;;;;;;;;;19.82;60.73;101640.69;5076677;28;894;-57
2021/08/27 08:58:42;;;;;;;;;;;;;;;19.82;60.28;101630.72;5076077;28;905;-56
2021/08/27 09:01:12;;;;;;;;;;;;;;;19.83;60.11;101631.59;5074348;28;1951;-56
2021/08/27 09:03:37;;;;;;;;;;;;;;;19.84;61.06;101633.31;5056081;28;932;-57
2021/08/27 09:06:03;;;;;;;;;;;;;;;19.83;60.40;101623.47;5056126;28;1065;-57
2021/08/27 09:08:28;;;;;;;;;;;;;;;19.83;60.93;101628.88;5055923;28;1563;-56
2021/08/27 09:10:53;;;;;;;;;;;;;;;19.83;60.47;101620.78;5055915;28;1125;-57
2021/08/27 09:13:18;;;;;;;;;;;;;;;19.85;60.53;101626.91;5056946;28;1768;-57
2021/08/27 09:15:43;;;;;;;;;;;;;;;19.82;61.30;101621.75;5075887;28;1001;-57
2021/08/27 09:18:08;;;;;;;;;;;;;;;19.83;60.39;101629.75;5075248;28;901;-56
2021/08/27 09:20:33;;;;;;;;;;;;;;;19.84;61.33;101636.00;5075779;28;1906;-56
2021/08/27 09:22:58;;;;;;;;;;;;;;;19.85;61.47;101626.91;5075485;28;1962;-57
2021/08/27 09:25:23;;;;;;;;;;;;;;;19.85;61.20;101616.09;5075651;28;945;-57
2021/08/27 09:27:48;;;;;;;;;;;;;;;19.84;61.17;101626.03;5075302;28;1823;-57
2021/08/27 09:30:13;;;;;;;;;;;;;;;19.86;61.37;101615.94;5065305;28;1733;-57
2021/08/27 09:32:38;;;;;;;;;;;;;;;19.87;61.15;101620.34;5055574;28;1196;-57
2021/08/27 09:35:05;;;;;;;;;;;;;;;19.88;61.21;101619.38;5055780;28;1021;-57
2021/08/27 09:37:30;;;;;;;;;;;;;;;19.90;62.24;101616.50;5055422;28;913;-57
2021/08/27 09:39:55;;;;;;;;;;;;;;;19.91;61.48;101604.66;5055577;28;902;-57
2021/08/27 09:42:20;;;;;;;;;;;;;;;19.89;61.18;101607.53;5069794;28;1901;-57
2021/08/27 09:44:45;;;;;;;;;;;;;;;19.88;61.68;101613.94;5075672;28;1005;-57
2021/08/27 09:47:11;;;;;;;;;;;;;;;19.87;61.74;101614.09;5075212;28;917;-56
2021/08/27 09:49:36;;;;;;;;;;;;;;;19.82;61.34;101617.22;5074616;28;1778;-57
2021/08/27 09:52:01;;;;;;;;;;;;;;;19.85;62.02;101618.78;5075514;28;942;-56
2021/08/27 09:54:26;;;;;;;;;;;;;;;19.86;61.20;101605.13;5074401;28;997;-57
2021/08/27 09:56:55;;;;;;;;;;;;;;;19.87;61.16;101604.13;5074768;28;1060;-55
2021/08/27 09:59:20;;;;;;;;;;;;;;;19.86;61.79;101598.84;5075260;28;945;-55
2021/08/27 10:01:45;;;;;;;;;;;;;;;19.84;61.33;101608.97;5062567;28;1955;-56
2021/08/27 10:04:10;;;;;;;;;;;;;;;19.83;61.46;101599.13;5055346;28;965;-57
2021/08/27 10:06:35;;;;;;;;;;;;;;;19.82;61.57;101594.72;5054858;28;1044;-55
2021/08/27 10:09:00;;;;;;;;;;;;;;;19.80;60.87;101594.84;5055277;28;802;-56
2021/08/27 10:11:25;;;;;;;;;;;;;;;19.80;61.04;101604.81;5055136;28;1406;-57
2021/08/27 10:13:51;;;;;;;;;;;;;;;19.80;61.27;101612.94;5065056;28;1903;-57
2021/08/27 10:16:16;;;;;;;;;;;;;;;19.81;61.22;101622.75;5074766;28;885;-56
2021/08/27 10:18:41;;;;;;;;;;;;;;;19.73;61.21;101628.84;5074879;28;852;-55
2021/08/27 10:21:06;;;;;;;;;;;;;;;19.73;61.00;101618.03;5065506;28;1918;-57
2021/08/27 10:23:31;;;;;;;;;;;;;;;19.72;60.99;101622.59;5055209;28;1578;-56
2021/08/27 10:25:56;;;;;;;;;;;;;;;19.73;62.06;101616.19;5054923;28;1005;-56
2021/08/27 10:28:21;;;;;;;;;;;;;;;19.74;61.33;101620.59;5070527;28;1874;-56
2021/08/27 10:30:47;;;;;;;;;;;;;;;19.79;61.43;101616.63;5074570;28;894;-57
2021/08/27 10:33:12;;;;;;;;;;;;;;;19.78;61.75;101610.38;5074955;28;814;-56
2021/08/27 10:35:37;;;;;;;;;;;;;;;19.80;61.16;101610.22;5068460;28;1792;-57
2021/08/27 10:38:02;;;;;;;;;;;;;;;19.79;61.30;101605.81;5055049;28;1827;-56
2021/08/27 10:40:27;;;;;;;;;;;;;;;19.77;61.33;101612.22;5054534;28;1886;-57
2021/08/27 10:42:52;;;;;;;;;;;;;;;19.77;61.87;101604.09;5053145;28;865;-56
2021/08/27 10:45:17;;;;;;;;;;;;;;;19.77;61.94;101614.06;5054397;28;800;-57
2021/08/27 10:47:42;;;;;;;;;;;;;;;19.66;61.96;101646.66;5054744;28;848;-57
2021/08/27 10:50:07;;;;;;;;;;;;;;;19.62;61.99;101651.47;5055133;28;1927;-55
2021/08/27 10:52:33;;;;;;;;;;;;;;;19.58;62.65;101670.81;5053096;28;1594;-57
2021/08/27 10:54:58;;;;;;;;;;;;;;;19.51;62.21;101654.31;5054736;28;1723;-57
2021/08/27 10:57:23;;;;;;;;;;;;;;;19.57;62.18;101655.56;5054631;28;1064;-57
2021/08/27 10:59:49;;;;;;;;;;;;;;;19.58;62.63;101655.44;5057067;28;1812;-58
2021/08/27 11:02:14;;;;;;;;;;;;;;;19.57;62.11;101652.88;5074702;28;1969;-58
2021/08/27 11:04:39;;;;;;;;;;;;;;;19.59;62.50;101646.34;5074914;28;941;-57
2021/08/27 11:07:05;;;;;;;;;;;;;;;19.60;62.61;101630.97;5076808;28;942;-58
2021/08/27 11:09:30;;;;;;;;;;;;;;;19.61;63.08;101629.97;5078398;28;861;-58
2021/08/27 11:11:55;;;;;;;;;;;;;;;19.64;62.60;101627.00;5076094;28;1783;-56
2021/08/27 11:14:20;;;;;;;;;;;;;;;19.66;62.76;101631.28;5056809;28;1161;-57
2021/08/27 11:16:45;;;;;;;;;;;;;;;19.67;62.82;101622.19;5058168;28;854;-56
2021/08/27 11:19:10;;;;;;;;;;;;;;;19.67;62.19;101622.19;5058310;28;1056;-56
2021/08/27 11:21:35;;;;;;;;;;;;;;;19.70;62.76;101621.03;5057621;28;1979;-57
2021/08/27 11:24:00;;;;;;;;;;;;;;;19.71;62.17;101618.19;5058200;28;897;-55
2021/08/27 11:26:26;;;;;;;;;;;;;;;19.71;62.39;101618.19;5058648;28;1811;-57
2021/08/27 11:28:51;;;;;;;;;;;;;;;19.72;62.57;101616.31;5057793;28;823;-57
2021/08/27 11:31:16;;;;;;;;;;;;;;;19.73;61.70;101616.19;5057958;28;1006;-56
2021/08/27 11:33:41;;;;;;;;;;;;;;;19.73;62.68;101616.19;5057640;28;921;-57
2021/08/27 11:36:06;;;;;;;;;;;;;;;19.73;62.21;101610.78;5057839;28;1686;-56
2021/08/27 11:38:31;;;;;;;;;;;;;;;19.75;62.14;101614.19;5057317;28;1174;-55
2021/08/27 11:40:56;;;;;;;;;;;;;;;19.74;62.96;101607.09;5059708;28;1966;-57
2021/08/27 11:43:21;;;;;;;;;;;;;;;19.74;63.51;101612.50;5057338;28;1755;-57
2021/08/27 11:45:46;;;;;;;;;;;;;;;19.75;63.17;101607.94;5057917;28;800;-57
2021/08/27 11:48:11;;;;;;;;;;;;;;;19.75;62.95;101614.19;5057758;28;997;-56
2021/08/27 11:50:38;;;;;;;;;;;;;;;19.76;63.34;101609.66;5057814;28;859;-57
2021/08/27 11:53:03;;;;;;;;;;;;;;;19.77;62.93;101609.50;5057707;28;1028;-57
2021/08/27 11:55:28;;;;;;;;;;;;;;;19.76;64.03;101612.34;5067817;28;1689;-56
2021/08/27 11:57:53;;;;;;;;;;;;;;;19.76;62.58;101607.81;5077578;28;1020;-57
2021/08/27 12:00:18;;;;;;;;;;;;;;;19.77;63.54;101614.06;5077664;28;831;-57
2021/08/27 12:02:44;;;;;;;;;;;;;;;19.76;63.61;101599.69;5077086;28;1886;-57
2021/08/27 12:05:12;;;;;;;;;;;;;;;19.77;63.23;101605.94;5076970;28;1009;-57
2021/08/27 12:07:40;;;;;;;;;;;;;;;19.76;63.38;101602.38;5076768;28;858;-57
2021/08/27 12:10:05;;;;;;;;;;;;;;;19.75;63.18;101602.53;5061994;28;1840;-57
2021/08/27 12:12:31;;;;;;;;;;;;;;;19.72;63.61;101602.81;5057066;28;1896;-57
2021/08/27 12:14:56;;;;;;;;;;;;;;;19.67;64.38;101605.09;5056977;28;862;-57
2021/08/27 12:17:21;;;;;;;;;;;;;;;19.72;63.40;101603.66;5057214;28;1632;-57
2021/08/27 12:19:46;;;;;;;;;;;;;;;19.75;63.48;101603.38;5055800;28;797;-57
2021/08/27 12:22:12;;;;;;;;;;;;;;;19.72;64.03;101606.38;5056404;28;1957;-57
2021/08/27 12:24:37;;;;;;;;;;;;;;;19.72;63.40;101600.97;5076858;28;1945;-57
2021/08/27 12:27:02;;;;;;;;;;;;;;;19.74;62.97;101595.41;5075668;28;830;-56
2021/08/27 12:29:27;;;;;;;;;;;;;;;19.74;63.33;101598.97;5076808;28;1076;-57
2021/08/27 12:31:53;;;;;;;;;;;;;;;19.75;63.51;101594.41;5076402;28;969;-59
2021/08/27 12:34:18;;;;;;;;;;;;;;;19.72;63.20;101590.13;5076669;28;882;-57
2021/08/27 12:36:43;;;;;;;;;;;;;;;19.72;63.45;101598.25;5075081;28;1842;-57
2021/08/27 12:39:08;;;;;;;;;;;;;;;19.71;63.05;101599.25;5056656;28;1061;-56
2021/08/27 12:41:33;;;;;;;;;;;;;;;19.73;63.27;101599.09;5056415;28;1898;-56